sensor_id;sensor_type;location;lat;lon;timestamp;P1;durP1;ratioP1;P2;durP2;ratioP2
38413;SDS011;24195;48.654;9.294;2022-08-19T00:01:56;27.57;;;24.97;;
38413;SDS011;24195;48.654;9.294;2022-08-19T00:04:24;25.97;;;23.57;;
38413;SDS011;24195;48.654;9.294;2022-08-19T00:06:54;26.93;;;24.53;;
38413;SDS011;24195;48.654;9.294;2022-08-19T00:09:20;26.40;;;24.03;;
38413;SDS011;24195;48.654;9.294;2022-08-19T00:11:47;26.10;;;23.73;;
38413;SDS011;24195;48.654;9.294;2022-08-19T00:14:14;23.50;;;21.20;;
38413;SDS011;24195;48.654;9.294;2022-08-19T00:16:42;22.73;;;20.70;;
38413;SDS011;24195;48.654;9.294;2022-08-19T00:19:10;25.00;;;22.73;;
38413;SDS011;24195;48.654;9.294;2022-08-19T00:21:43;24.50;;;22.30;;
38413;SDS011;24195;48.654;9.294;2022-08-19T00:24:10;22.57;;;20.57;;
38413;SDS011;24195;48.654;9.294;2022-08-19T00:26:38;22.40;;;20.40;;
38413;SDS011;24195;48.654;9.294;2022-08-19T00:29:05;23.73;;;21.70;;
38413;SDS011;24195;48.654;9.294;2022-08-19T00:31:35;24.20;;;22.10;;
38413;SDS011;24195;48.654;9.294;2022-08-19T00:34:01;23.03;;;20.83;;
38413;SDS011;24195;48.654;9.294;2022-08-19T00:36:27;23.87;;;21.50;;
38413;SDS011;24195;48.654;9.294;2022-08-19T00:38:54;23.57;;;21.40;;
38413;SDS011;24195;48.654;9.294;2022-08-19T00:41:20;22.97;;;20.70;;
38413;SDS011;24195;48.654;9.294;2022-08-19T00:44:02;22.40;;;20.20;;
38413;SDS011;24195;48.654;9.294;2022-08-19T00:46:29;19.53;;;17.53;;
38413;SDS011;24195;48.654;9.294;2022-08-19T00:48:56;22.33;;;20.23;;
38413;SDS011;24195;48.654;9.294;2022-08-19T00:51:22;21.13;;;19.20;;
38413;SDS011;24195;48.654;9.294;2022-08-19T00:53:54;21.90;;;19.90;;
38413;SDS011;24195;48.654;9.294;2022-08-19T00:56:22;20.87;;;18.77;;
38413;SDS011;24195;48.654;9.294;2022-08-19T00:58:48;20.20;;;18.10;;
38413;SDS011;24195;48.654;9.294;2022-08-19T01:01:14;21.90;;;19.70;;
38413;SDS011;24195;48.654;9.294;2022-08-19T01:03:40;22.57;;;20.27;;
38413;SDS011;24195;48.654;9.294;2022-08-19T01:06:06;20.20;;;18.23;;
38413;SDS011;24195;48.654;9.294;2022-08-19T01:08:32;22.87;;;20.67;;
38413;SDS011;24195;48.654;9.294;2022-08-19T01:10:58;21.40;;;19.20;;
38413;SDS011;24195;48.654;9.294;2022-08-19T01:13:26;22.70;;;20.00;;
38413;SDS011;24195;48.654;9.294;2022-08-19T01:15:59;21.43;;;19.43;;
38413;SDS011;24195;48.654;9.294;2022-08-19T01:18:28;21.73;;;19.53;;
38413;SDS011;24195;48.654;9.294;2022-08-19T01:20:56;22.80;;;20.57;;
38413;SDS011;24195;48.654;9.294;2022-08-19T01:23:26;22.33;;;20.20;;
38413;SDS011;24195;48.654;9.294;2022-08-19T01:26:11;20.40;;;18.50;;
38413;SDS011;24195;48.654;9.294;2022-08-19T01:29:01;21.67;;;19.67;;
38413;SDS011;24195;48.654;9.294;2022-08-19T01:31:37;21.30;;;19.30;;
38413;SDS011;24195;48.654;9.294;2022-08-19T01:34:04;20.90;;;18.77;;
38413;SDS011;24195;48.654;9.294;2022-08-19T01:36:32;21.37;;;19.37;;
38413;SDS011;24195;48.654;9.294;2022-08-19T01:39:01;21.67;;;19.67;;
38413;SDS011;24195;48.654;9.294;2022-08-19T01:41:32;20.87;;;18.97;;
38413;SDS011;24195;48.654;9.294;2022-08-19T01:43:58;20.23;;;18.53;;
38413;SDS011;24195;48.654;9.294;2022-08-19T01:46:25;20.40;;;18.60;;
38413;SDS011;24195;48.654;9.294;2022-08-19T01:48:51;22.33;;;20.13;;
38413;SDS011;24195;48.654;9.294;2022-08-19T01:51:17;22.00;;;20.00;;
38413;SDS011;24195;48.654;9.294;2022-08-19T01:53:45;22.03;;;20.13;;
38413;SDS011;24195;48.654;9.294;2022-08-19T01:56:13;22.20;;;20.20;;
38413;SDS011;24195;48.654;9.294;2022-08-19T01:58:49;21.80;;;19.70;;
38413;SDS011;24195;48.654;9.294;2022-08-19T02:01:24;22.00;;;19.90;;
38413;SDS011;24195;48.654;9.294;2022-08-19T02:03:57;22.47;;;20.50;;
38413;SDS011;24195;48.654;9.294;2022-08-19T02:06:28;21.60;;;19.50;;
38413;SDS011;24195;48.654;9.294;2022-08-19T02:08:56;21.83;;;19.53;;
38413;SDS011;24195;48.654;9.294;2022-08-19T02:11:24;20.50;;;18.60;;
38413;SDS011;24195;48.654;9.294;2022-08-19T02:13:52;21.63;;;19.53;;
38413;SDS011;24195;48.654;9.294;2022-08-19T02:16:19;20.30;;;18.40;;
38413;SDS011;24195;48.654;9.294;2022-08-19T02:18:50;19.43;;;17.67;;
38413;SDS011;24195;48.654;9.294;2022-08-19T02:21:33;21.73;;;19.60;;
38413;SDS011;24195;48.654;9.294;2022-08-19T02:24:01;22.00;;;19.90;;
38413;SDS011;24195;48.654;9.294;2022-08-19T02:26:28;19.93;;;18.03;;
38413;SDS011;24195;48.654;9.294;2022-08-19T02:29:08;21.33;;;19.43;;
38413;SDS011;24195;48.654;9.294;2022-08-19T02:31:38;20.00;;;18.10;;
38413;SDS011;24195;48.654;9.294;2022-08-19T02:34:04;22.80;;;20.50;;
38413;SDS011;24195;48.654;9.294;2022-08-19T02:36:30;22.33;;;20.23;;
38413;SDS011;24195;48.654;9.294;2022-08-19T02:38:56;21.87;;;19.77;;
38413;SDS011;24195;48.654;9.294;2022-08-19T02:41:25;22.73;;;20.57;;
38413;SDS011;24195;48.654;9.294;2022-08-19T02:43:55;21.97;;;19.70;;
38413;SDS011;24195;48.654;9.294;2022-08-19T02:46:24;23.50;;;20.80;;
38413;SDS011;24195;48.654;9.294;2022-08-19T02:48:52;21.37;;;19.37;;
38413;SDS011;24195;48.654;9.294;2022-08-19T02:51:21;22.13;;;19.93;;
38413;SDS011;24195;48.654;9.294;2022-08-19T02:53:51;22.03;;;19.83;;
38413;SDS011;24195;48.654;9.294;2022-08-19T02:56:21;21.03;;;18.80;;
38413;SDS011;24195;48.654;9.294;2022-08-19T02:58:50;21.00;;;18.80;;
38413;SDS011;24195;48.654;9.294;2022-08-19T03:01:20;22.63;;;18.70;;
38413;SDS011;24195;48.654;9.294;2022-08-19T03:03:53;21.40;;;19.20;;
38413;SDS011;24195;48.654;9.294;2022-08-19T03:06:21;24.10;;;20.73;;
38413;SDS011;24195;48.654;9.294;2022-08-19T03:08:48;22.67;;;20.53;;
38413;SDS011;24195;48.654;9.294;2022-08-19T03:11:29;24.03;;;19.50;;
38413;SDS011;24195;48.654;9.294;2022-08-19T03:13:56;23.33;;;20.83;;
38413;SDS011;24195;48.654;9.294;2022-08-19T03:16:23;20.97;;;19.00;;
38413;SDS011;24195;48.654;9.294;2022-08-19T03:18:51;20.00;;;18.10;;
38413;SDS011;24195;48.654;9.294;2022-08-19T03:21:18;21.87;;;19.83;;
38413;SDS011;24195;48.654;9.294;2022-08-19T03:23:46;21.60;;;19.40;;
38413;SDS011;24195;48.654;9.294;2022-08-19T03:26:12;22.07;;;19.87;;
38413;SDS011;24195;48.654;9.294;2022-08-19T03:28:39;21.43;;;19.30;;
38413;SDS011;24195;48.654;9.294;2022-08-19T03:31:12;22.73;;;20.53;;
38413;SDS011;24195;48.654;9.294;2022-08-19T03:33:39;22.53;;;20.33;;
38413;SDS011;24195;48.654;9.294;2022-08-19T03:38:40;19.43;;;17.67;;
38413;SDS011;24195;48.654;9.294;2022-08-19T03:41:12;22.47;;;20.17;;
38413;SDS011;24195;48.654;9.294;2022-08-19T03:43:40;21.47;;;19.37;;
38413;SDS011;24195;48.654;9.294;2022-08-19T03:46:29;22.20;;;19.93;;
38413;SDS011;24195;48.654;9.294;2022-08-19T03:48:58;22.70;;;20.37;;
38413;SDS011;24195;48.654;9.294;2022-08-19T03:51:43;22.20;;;20.00;;
38413;SDS011;24195;48.654;9.294;2022-08-19T03:54:22;22.40;;;20.00;;
38413;SDS011;24195;48.654;9.294;2022-08-19T03:56:52;22.07;;;19.97;;
38413;SDS011;24195;48.654;9.294;2022-08-19T03:59:21;23.07;;;20.77;;
38413;SDS011;24195;48.654;9.294;2022-08-19T04:01:51;21.83;;;19.63;;
38413;SDS011;24195;48.654;9.294;2022-08-19T04:04:20;22.23;;;20.03;;
38413;SDS011;24195;48.654;9.294;2022-08-19T04:06:47;20.87;;;18.80;;
38413;SDS011;24195;48.654;9.294;2022-08-19T04:09:13;21.70;;;19.60;;
38413;SDS011;24195;48.654;9.294;2022-08-19T04:11:42;22.87;;;20.40;;
38413;SDS011;24195;48.654;9.294;2022-08-19T04:14:13;23.00;;;20.60;;
38413;SDS011;24195;48.654;9.294;2022-08-19T04:16:41;23.03;;;20.73;;
38413;SDS011;24195;48.654;9.294;2022-08-19T04:19:10;25.43;;;22.83;;
38413;SDS011;24195;48.654;9.294;2022-08-19T04:21:45;24.90;;;22.40;;
38413;SDS011;24195;48.654;9.294;2022-08-19T04:24:17;27.00;;;24.07;;
38413;SDS011;24195;48.654;9.294;2022-08-19T04:26:44;27.80;;;24.97;;
38413;SDS011;24195;48.654;9.294;2022-08-19T04:29:12;29.20;;;24.83;;
38413;SDS011;24195;48.654;9.294;2022-08-19T04:31:40;27.30;;;24.70;;
38413;SDS011;24195;48.654;9.294;2022-08-19T04:34:16;28.23;;;25.30;;
38413;SDS011;24195;48.654;9.294;2022-08-19T04:36:43;27.77;;;24.87;;
38413;SDS011;24195;48.654;9.294;2022-08-19T04:39:14;28.57;;;25.53;;
38413;SDS011;24195;48.654;9.294;2022-08-19T04:41:40;28.57;;;25.57;;
38413;SDS011;24195;48.654;9.294;2022-08-19T04:44:28;28.40;;;25.47;;
38413;SDS011;24195;48.654;9.294;2022-08-19T04:46:55;29.20;;;26.20;;
38413;SDS011;24195;48.654;9.294;2022-08-19T04:49:21;28.50;;;25.60;;
38413;SDS011;24195;48.654;9.294;2022-08-19T04:51:48;29.90;;;26.90;;
38413;SDS011;24195;48.654;9.294;2022-08-19T04:54:17;32.10;;;26.80;;
38413;SDS011;24195;48.654;9.294;2022-08-19T04:56:51;28.37;;;25.50;;
38413;SDS011;24195;48.654;9.294;2022-08-19T04:59:17;29.10;;;26.00;;
38413;SDS011;24195;48.654;9.294;2022-08-19T05:01:47;29.37;;;26.30;;
38413;SDS011;24195;48.654;9.294;2022-08-19T05:04:38;30.23;;;26.97;;
38413;SDS011;24195;48.654;9.294;2022-08-19T05:07:10;28.47;;;25.47;;
38413;SDS011;24195;48.654;9.294;2022-08-19T05:09:45;29.80;;;25.80;;
38413;SDS011;24195;48.654;9.294;2022-08-19T05:12:14;29.00;;;25.90;;
38413;SDS011;24195;48.654;9.294;2022-08-19T05:14:44;29.33;;;25.67;;
38413;SDS011;24195;48.654;9.294;2022-08-19T05:17:12;27.00;;;24.27;;
38413;SDS011;24195;48.654;9.294;2022-08-19T05:19:38;28.30;;;25.40;;
38413;SDS011;24195;48.654;9.294;2022-08-19T05:22:29;27.77;;;24.90;;
38413;SDS011;24195;48.654;9.294;2022-08-19T05:24:59;30.80;;;27.37;;
38413;SDS011;24195;48.654;9.294;2022-08-19T05:27:52;27.80;;;24.90;;
38413;SDS011;24195;48.654;9.294;2022-08-19T05:30:18;28.70;;;25.63;;
38413;SDS011;24195;48.654;9.294;2022-08-19T05:33:12;25.73;;;23.13;;
38413;SDS011;24195;48.654;9.294;2022-08-19T05:35:50;30.40;;;25.77;;
38413;SDS011;24195;48.654;9.294;2022-08-19T05:38:29;26.10;;;23.60;;
38413;SDS011;24195;48.654;9.294;2022-08-19T05:41:06;28.73;;;25.73;;
38413;SDS011;24195;48.654;9.294;2022-08-19T05:43:34;28.13;;;25.20;;
38413;SDS011;24195;48.654;9.294;2022-08-19T05:46:00;29.30;;;26.00;;
38413;SDS011;24195;48.654;9.294;2022-08-19T05:48:25;30.60;;;25.90;;
38413;SDS011;24195;48.654;9.294;2022-08-19T05:51:07;27.80;;;24.67;;
38413;SDS011;24195;48.654;9.294;2022-08-19T05:53:33;31.47;;;26.53;;
38413;SDS011;24195;48.654;9.294;2022-08-19T05:56:12;28.43;;;25.47;;
38413;SDS011;24195;48.654;9.294;2022-08-19T05:58:40;29.43;;;26.37;;
38413;SDS011;24195;48.654;9.294;2022-08-19T06:01:25;28.97;;;25.93;;
38413;SDS011;24195;48.654;9.294;2022-08-19T06:03:52;28.40;;;25.50;;
38413;SDS011;24195;48.654;9.294;2022-08-19T06:06:20;30.97;;;27.57;;
38413;SDS011;24195;48.654;9.294;2022-08-19T06:08:46;29.30;;;26.30;;
38413;SDS011;24195;48.654;9.294;2022-08-19T06:11:24;28.37;;;25.47;;
38413;SDS011;24195;48.654;9.294;2022-08-19T06:14:03;27.93;;;25.13;;
38413;SDS011;24195;48.654;9.294;2022-08-19T06:16:34;29.37;;;26.20;;
38413;SDS011;24195;48.654;9.294;2022-08-19T06:19:03;29.80;;;26.90;;
38413;SDS011;24195;48.654;9.294;2022-08-19T06:21:32;29.23;;;26.17;;
38413;SDS011;24195;48.654;9.294;2022-08-19T06:23:59;31.43;;;28.07;;
38413;SDS011;24195;48.654;9.294;2022-08-19T06:26:28;31.40;;;27.80;;
38413;SDS011;24195;48.654;9.294;2022-08-19T06:28:54;29.60;;;26.60;;
38413;SDS011;24195;48.654;9.294;2022-08-19T06:31:21;30.90;;;27.63;;
38413;SDS011;24195;48.654;9.294;2022-08-19T06:33:49;31.83;;;27.73;;
38413;SDS011;24195;48.654;9.294;2022-08-19T06:36:21;32.07;;;27.07;;
38413;SDS011;24195;48.654;9.294;2022-08-19T06:38:57;30.30;;;27.20;;
38413;SDS011;24195;48.654;9.294;2022-08-19T06:41:27;30.30;;;25.17;;
38413;SDS011;24195;48.654;9.294;2022-08-19T06:44:00;30.20;;;27.10;;
38413;SDS011;24195;48.654;9.294;2022-08-19T06:46:26;31.30;;;27.90;;
38413;SDS011;24195;48.654;9.294;2022-08-19T06:48:52;31.13;;;27.93;;
38413;SDS011;24195;48.654;9.294;2022-08-19T06:51:19;30.50;;;27.40;;
38413;SDS011;24195;48.654;9.294;2022-08-19T06:53:55;29.30;;;26.53;;
38413;SDS011;24195;48.654;9.294;2022-08-19T06:56:34;29.10;;;26.07;;
38413;SDS011;24195;48.654;9.294;2022-08-19T06:59:07;28.03;;;25.20;;
38413;SDS011;24195;48.654;9.294;2022-08-19T07:01:39;29.30;;;26.30;;
38413;SDS011;24195;48.654;9.294;2022-08-19T07:04:12;30.80;;;27.50;;
38413;SDS011;24195;48.654;9.294;2022-08-19T07:06:40;29.50;;;26.50;;
38413;SDS011;24195;48.654;9.294;2022-08-19T07:09:08;31.13;;;27.93;;
38413;SDS011;24195;48.654;9.294;2022-08-19T07:11:43;32.00;;;27.27;;
38413;SDS011;24195;48.654;9.294;2022-08-19T07:14:10;31.80;;;28.57;;
38413;SDS011;24195;48.654;9.294;2022-08-19T07:16:39;30.13;;;27.00;;
38413;SDS011;24195;48.654;9.294;2022-08-19T07:19:05;30.70;;;27.70;;
38413;SDS011;24195;48.654;9.294;2022-08-19T07:21:32;31.00;;;27.90;;
38413;SDS011;24195;48.654;9.294;2022-08-19T07:23:59;30.80;;;27.70;;
38413;SDS011;24195;48.654;9.294;2022-08-19T07:26:27;30.00;;;26.90;;
38413;SDS011;24195;48.654;9.294;2022-08-19T07:29:31;31.70;;;28.33;;
38413;SDS011;24195;48.654;9.294;2022-08-19T07:31:59;31.87;;;28.50;;
38413;SDS011;24195;48.654;9.294;2022-08-19T07:34:28;31.97;;;28.40;;
38413;SDS011;24195;48.654;9.294;2022-08-19T07:36:55;32.07;;;28.70;;
38413;SDS011;24195;48.654;9.294;2022-08-19T07:39:33;33.87;;;30.17;;
38413;SDS011;24195;48.654;9.294;2022-08-19T07:42:07;36.83;;;32.83;;
38413;SDS011;24195;48.654;9.294;2022-08-19T07:44:35;34.03;;;28.93;;
38413;SDS011;24195;48.654;9.294;2022-08-19T07:47:03;36.30;;;30.20;;
38413;SDS011;24195;48.654;9.294;2022-08-19T07:49:29;31.40;;;28.07;;
38413;SDS011;24195;48.654;9.294;2022-08-19T07:51:59;33.80;;;30.37;;
38413;SDS011;24195;48.654;9.294;2022-08-19T07:54:29;32.77;;;28.93;;
38413;SDS011;24195;48.654;9.294;2022-08-19T07:57:06;31.80;;;28.50;;
38413;SDS011;24195;48.654;9.294;2022-08-19T07:59:35;31.03;;;27.73;;
38413;SDS011;24195;48.654;9.294;2022-08-19T08:02:04;31.43;;;26.70;;
38413;SDS011;24195;48.654;9.294;2022-08-19T08:04:39;30.80;;;27.53;;
38413;SDS011;24195;48.654;9.294;2022-08-19T08:07:25;29.30;;;26.20;;
38413;SDS011;24195;48.654;9.294;2022-08-19T08:10:21;31.77;;;28.37;;
38413;SDS011;24195;48.654;9.294;2022-08-19T08:12:47;31.97;;;28.67;;
38413;SDS011;24195;48.654;9.294;2022-08-19T08:15:13;34.13;;;29.17;;
38413;SDS011;24195;48.654;9.294;2022-08-19T08:17:44;31.77;;;28.47;;
38413;SDS011;24195;48.654;9.294;2022-08-19T08:20:14;31.30;;;27.90;;
38413;SDS011;24195;48.654;9.294;2022-08-19T08:23:01;31.40;;;28.10;;
38413;SDS011;24195;48.654;9.294;2022-08-19T08:25:48;32.33;;;28.93;;
38413;SDS011;24195;48.654;9.294;2022-08-19T08:28:14;31.77;;;28.23;;
38413;SDS011;24195;48.654;9.294;2022-08-19T08:30:46;32.37;;;28.87;;
38413;SDS011;24195;48.654;9.294;2022-08-19T08:33:16;31.37;;;28.03;;
38413;SDS011;24195;48.654;9.294;2022-08-19T08:35:48;31.93;;;28.73;;
38413;SDS011;24195;48.654;9.294;2022-08-19T08:38:14;32.03;;;28.60;;
38413;SDS011;24195;48.654;9.294;2022-08-19T08:40:48;30.63;;;27.43;;
38413;SDS011;24195;48.654;9.294;2022-08-19T08:43:35;29.67;;;26.47;;
38413;SDS011;24195;48.654;9.294;2022-08-19T08:51:25;34.57;;;30.63;;
38413;SDS011;24195;48.654;9.294;2022-08-19T08:54:08;33.00;;;29.70;;
38413;SDS011;24195;48.654;9.294;2022-08-19T08:56:39;29.67;;;26.53;;
38413;SDS011;24195;48.654;9.294;2022-08-19T08:59:26;32.73;;;29.43;;
38413;SDS011;24195;48.654;9.294;2022-08-19T09:02:16;31.77;;;28.47;;
38413;SDS011;24195;48.654;9.294;2022-08-19T09:04:48;33.10;;;26.40;;
38413;SDS011;24195;48.654;9.294;2022-08-19T09:10:38;31.03;;;28.00;;
38413;SDS011;24195;48.654;9.294;2022-08-19T09:13:31;33.03;;;28.33;;
38413;SDS011;24195;48.654;9.294;2022-08-19T09:16:23;29.13;;;26.13;;
38413;SDS011;24195;48.654;9.294;2022-08-19T09:19:09;32.87;;;29.17;;
38413;SDS011;24195;48.654;9.294;2022-08-19T09:21:43;33.00;;;27.97;;
38413;SDS011;24195;48.654;9.294;2022-08-19T09:24:08;28.67;;;25.63;;
38413;SDS011;24195;48.654;9.294;2022-08-19T09:26:34;29.07;;;26.17;;
38413;SDS011;24195;48.654;9.294;2022-08-19T09:29:11;30.07;;;26.87;;
38413;SDS011;24195;48.654;9.294;2022-08-19T09:34:37;30.13;;;26.97;;
38413;SDS011;24195;48.654;9.294;2022-08-19T09:37:03;29.50;;;26.47;;
38413;SDS011;24195;48.654;9.294;2022-08-19T09:39:30;29.33;;;26.00;;
38413;SDS011;24195;48.654;9.294;2022-08-19T09:41:56;29.90;;;26.73;;
38413;SDS011;24195;48.654;9.294;2022-08-19T09:44:21;29.30;;;26.40;;
38413;SDS011;24195;48.654;9.294;2022-08-19T09:46:48;28.67;;;25.87;;
38413;SDS011;24195;48.654;9.294;2022-08-19T09:49:17;29.70;;;26.80;;
38413;SDS011;24195;48.654;9.294;2022-08-19T09:52:05;29.97;;;26.80;;
38413;SDS011;24195;48.654;9.294;2022-08-19T09:54:35;33.23;;;28.33;;
38413;SDS011;24195;48.654;9.294;2022-08-19T09:57:04;28.13;;;25.10;;
38413;SDS011;24195;48.654;9.294;2022-08-19T09:59:53;29.57;;;26.47;;
38413;SDS011;24195;48.654;9.294;2022-08-19T10:02:18;27.87;;;25.07;;
38413;SDS011;24195;48.654;9.294;2022-08-19T10:04:58;26.63;;;23.67;;
38413;SDS011;24195;48.654;9.294;2022-08-19T10:08:05;32.20;;;28.63;;
38413;SDS011;24195;48.654;9.294;2022-08-19T10:10:36;28.23;;;25.20;;
38413;SDS011;24195;48.654;9.294;2022-08-19T10:13:19;31.40;;;28.17;;
38413;SDS011;24195;48.654;9.294;2022-08-19T10:15:52;30.00;;;26.90;;
38413;SDS011;24195;48.654;9.294;2022-08-19T10:18:29;29.17;;;26.17;;
38413;SDS011;24195;48.654;9.294;2022-08-19T19:52:03;34.87;;;31.47;;
38413;SDS011;24195;48.654;9.294;2022-08-19T19:54:29;32.43;;;29.33;;
